createdAt,value
2019-01-24T00:00:04.902Z,-5.8
2019-01-24T00:01:06.984Z,-5.8
2019-01-24T00:02:09.091Z,-5.9
2019-01-24T00:03:11.195Z,-5.9
2019-01-24T00:04:17.999Z,-5.9
2019-01-24T00:05:20.114Z,-5.8
2019-01-24T00:06:22.211Z,-5.8
2019-01-24T00:07:24.306Z,-5.8
2019-01-24T00:08:26.388Z,-5.8
2019-01-24T00:09:28.510Z,-5.9
2019-01-24T00:10:30.596Z,-5.9
2019-01-24T00:11:32.688Z,-5.8
2019-01-24T00:12:34.802Z,-5.8
2019-01-24T00:13:36.881Z,-5.9
2019-01-24T00:14:38.994Z,-5.9
2019-01-24T00:15:41.096Z,-5.9
2019-01-24T00:16:43.205Z,-5.9
2019-01-24T00:17:45.674Z,-5.8
2019-01-24T00:18:48.164Z,-5.8
2019-01-24T00:19:50.253Z,-5.8
2019-01-24T00:20:52.348Z,-5.8
2019-01-24T00:21:54.460Z,-5.8
2019-01-24T00:22:56.818Z,-5.8
2019-01-24T00:23:59.203Z,-5.8
2019-01-24T00:25:01.772Z,-5.8
2019-01-24T00:26:03.871Z,-5.8
2019-01-24T00:27:05.960Z,-5.8
2019-01-24T00:28:08.062Z,-5.8
2019-01-24T00:29:10.151Z,-5.8
2019-01-24T00:30:12.282Z,-5.8
2019-01-24T00:31:14.673Z,-5.7
2019-01-24T00:32:16.766Z,-5.7
2019-01-24T00:33:18.864Z,-5.7
2019-01-24T00:34:24.925Z,-5.8
2019-01-24T00:35:27.023Z,-5.8
2019-01-24T00:36:29.124Z,-5.8
2019-01-24T00:37:31.211Z,-5.8
2019-01-24T00:38:33.325Z,-5.8
2019-01-24T00:39:35.416Z,-5.8
2019-01-24T00:40:37.506Z,-5.8
2019-01-24T00:41:39.590Z,-5.8
2019-01-24T00:42:41.699Z,-5.8
2019-01-24T00:43:43.788Z,-5.7
2019-01-24T00:44:45.895Z,-5.8
2019-01-24T00:45:47.992Z,-5.7
2019-01-24T00:46:50.072Z,-5.7
2019-01-24T00:47:52.175Z,-5.7
2019-01-24T00:48:54.269Z,-5.7
2019-01-24T00:49:56.366Z,-5.7
2019-01-24T00:50:58.447Z,-5.7
2019-01-24T00:52:00.544Z,-5.7
2019-01-24T00:53:02.919Z,-5.7
2019-01-24T00:54:05.311Z,-5.7
2019-01-24T00:55:07.423Z,-5.6
2019-01-24T00:56:09.502Z,-5.6
2019-01-24T00:57:11.592Z,-5.6
2019-01-24T00:58:13.704Z,-5.6
2019-01-24T00:59:15.806Z,-5.5
2019-01-24T01:00:18.284Z,-5.6
2019-01-24T01:01:20.379Z,-5.6
2019-01-24T01:02:22.462Z,-5.6
2019-01-24T01:03:24.556Z,-5.6
2019-01-24T01:04:31.018Z,-5.6
2019-01-24T01:05:33.111Z,-5.6
2019-01-24T01:06:35.211Z,-5.6
2019-01-24T01:07:37.599Z,-5.6
2019-01-24T01:08:39.691Z,-5.6
2019-01-24T01:09:41.790Z,-5.6
2019-01-24T01:10:43.907Z,-5.6
2019-01-24T01:11:45.995Z,-5.6
2019-01-24T01:12:48.495Z,-5.6
2019-01-24T01:13:50.593Z,-5.6
2019-01-24T01:14:52.703Z,-5.6
2019-01-24T01:15:54.782Z,-5.6
2019-01-24T01:16:56.889Z,-5.7
2019-01-24T01:17:59.289Z,-5.6
2019-01-24T01:19:01.372Z,-5.6
2019-01-24T01:20:03.488Z,-5.6
2019-01-24T01:21:05.579Z,-5.6
2019-01-24T01:22:07.682Z,-5.6
2019-01-24T01:23:10.162Z,-5.6
2019-01-24T01:24:12.271Z,-5.6
2019-01-24T01:25:14.361Z,-5.6
2019-01-24T01:26:16.843Z,-5.6
2019-01-24T01:27:19.223Z,-5.6
2019-01-24T01:28:21.589Z,-5.6
2019-01-24T01:29:23.693Z,-5.6
2019-01-24T01:30:26.068Z,-5.6
2019-01-24T01:31:28.157Z,-5.6
2019-01-24T01:32:30.259Z,-5.6
2019-01-24T01:33:32.367Z,-5.6
2019-01-24T01:34:37.484Z,-5.7
2019-01-24T01:35:39.602Z,-5.6
2019-01-24T01:36:41.696Z,-5.6
2019-01-24T01:37:43.779Z,-5.6
2019-01-24T01:38:46.157Z,-5.6
2019-01-24T01:39:48.230Z,-5.6
2019-01-24T01:40:50.307Z,-5.6
2019-01-24T01:41:52.428Z,-5.6
2019-01-24T01:42:54.528Z,-5.6
2019-01-24T01:43:56.626Z,-5.6
2019-01-24T01:44:58.747Z,-5.6
2019-01-24T01:46:00.835Z,-5.6
2019-01-24T01:47:03.211Z,-5.6
2019-01-24T01:48:05.303Z,-5.5
2019-01-24T01:49:07.391Z,-5.6
2019-01-24T01:50:09.780Z,-5.6
2019-01-24T01:51:11.878Z,-5.6
2019-01-24T01:52:14.252Z,-5.5
2019-01-24T01:53:16.368Z,-5.5
2019-01-24T01:54:18.471Z,-5.5
2019-01-24T01:55:20.571Z,-5.6
2019-01-24T01:56:22.961Z,-5.6
2019-01-24T01:57:25.080Z,-5.6
2019-01-24T01:58:27.444Z,-5.6
2019-01-24T01:59:29.538Z,-5.6
2019-01-24T02:00:31.638Z,-5.5
2019-01-24T02:01:33.717Z,-5.5
2019-01-24T02:02:35.826Z,-5.5
2019-01-24T02:03:38.202Z,-5.5
2019-01-24T02:04:44.424Z,-5.5
2019-01-24T02:05:46.806Z,-5.5
2019-01-24T02:06:48.912Z,-5.5
2019-01-24T02:07:51.002Z,-5.5
2019-01-24T02:08:53.110Z,-5.5
2019-01-24T02:09:55.207Z,-5.4
2019-01-24T02:10:57.301Z,-5.4
2019-01-24T02:11:59.396Z,-5.4
2019-01-24T02:13:01.506Z,-5.5
2019-01-24T02:14:03.586Z,-5.4
2019-01-24T02:15:05.683Z,-5.5
2019-01-24T02:16:07.804Z,-5.5
2019-01-24T02:17:10.170Z,-5.5
2019-01-24T02:18:12.281Z,-5.5
2019-01-24T02:19:14.384Z,-5.5
2019-01-24T02:20:16.492Z,-5.5
2019-01-24T02:21:18.578Z,-5.5
2019-01-24T02:22:20.694Z,-5.5
2019-01-24T02:23:23.086Z,-5.5
2019-01-24T02:24:25.188Z,-5.5
2019-01-24T02:25:27.298Z,-5.5
2019-01-24T02:26:29.399Z,-5.6
2019-01-24T02:27:31.485Z,-5.5
2019-01-24T02:28:33.576Z,-5.5
2019-01-24T02:29:35.669Z,-5.6
2019-01-24T02:30:37.803Z,-5.5
2019-01-24T02:31:39.899Z,-5.5
2019-01-24T02:32:42.006Z,-5.6
2019-01-24T02:33:44.129Z,-5.6
2019-01-24T02:34:51.297Z,-5.6
2019-01-24T02:35:53.424Z,-5.6
2019-01-24T02:36:55.533Z,-5.6
2019-01-24T02:37:58.318Z,-5.6
2019-01-24T02:39:00.426Z,-5.6
2019-01-24T02:40:02.546Z,-5.6
2019-01-24T02:41:04.643Z,-5.6
2019-01-24T02:42:06.779Z,-5.6
2019-01-24T02:43:09.186Z,-5.6
2019-01-24T02:44:11.689Z,-5.6
2019-01-24T02:45:13.785Z,-5.6
2019-01-24T02:46:15.890Z,-5.6
2019-01-24T02:47:17.972Z,-5.6
2019-01-24T02:48:20.358Z,-5.6
2019-01-24T02:49:22.467Z,-5.6
2019-01-24T02:50:24.945Z,-5.6
2019-01-24T02:51:27.056Z,-5.6
2019-01-24T02:52:29.164Z,-5.6
2019-01-24T02:53:31.275Z,-5.6
2019-01-24T02:54:33.750Z,-5.6
2019-01-24T02:55:35.867Z,-5.6
2019-01-24T02:56:37.958Z,-5.6
2019-01-24T02:57:40.073Z,-5.6
2019-01-24T02:58:42.192Z,-5.7
2019-01-24T02:59:44.282Z,-5.7
2019-01-24T03:00:46.389Z,-5.6
2019-01-24T03:01:48.877Z,-5.6
2019-01-24T03:02:50.979Z,-5.6
2019-01-24T03:03:53.058Z,-5.6
2019-01-24T03:04:59.002Z,-5.6
2019-01-24T03:06:01.124Z,-5.6
2019-01-24T03:07:03.231Z,-5.6
2019-01-24T03:08:05.317Z,-5.6
2019-01-24T03:09:08.003Z,-5.6
2019-01-24T03:10:10.511Z,-5.6
2019-01-24T03:11:12.601Z,-5.6
2019-01-24T03:12:14.712Z,-5.6
2019-01-24T03:13:16.896Z,-5.6
2019-01-24T03:14:18.992Z,-5.6
2019-01-24T03:15:21.403Z,-5.6
2019-01-24T03:16:23.499Z,-5.6
2019-01-24T03:17:25.898Z,-5.6
2019-01-24T03:18:27.995Z,-5.6
2019-01-24T03:19:30.110Z,-5.6
2019-01-24T03:20:32.197Z,-5.6
2019-01-24T03:21:34.305Z,-5.6
2019-01-24T03:22:36.413Z,-5.6
2019-01-24T03:23:38.504Z,-5.6
2019-01-24T03:24:40.624Z,-5.6
2019-01-24T03:25:43.706Z,-5.6
2019-01-24T03:26:46.094Z,-5.6
2019-01-24T03:27:48.482Z,-5.6
2019-01-24T03:28:50.609Z,-5.6
2019-01-24T03:29:52.710Z,-5.6
2019-01-24T03:30:55.162Z,-5.6
2019-01-24T03:31:57.904Z,-5.6
2019-01-24T03:33:00.803Z,-5.6
2019-01-24T03:34:02.929Z,-5.6
2019-01-24T03:35:06.170Z,-5.6
2019-01-24T03:36:08.568Z,-5.6
2019-01-24T03:37:10.649Z,-5.6
2019-01-24T03:38:13.037Z,-5.6
2019-01-24T03:39:15.127Z,-5.6
2019-01-24T03:40:17.517Z,-5.6
2019-01-24T03:41:19.634Z,-5.5
2019-01-24T03:42:21.729Z,-5.5
2019-01-24T03:43:23.832Z,-5.5
2019-01-24T03:44:26.237Z,-5.5
2019-01-24T03:45:29.001Z,-5.5
2019-01-24T03:46:31.090Z,-5.6
2019-01-24T03:47:33.198Z,-5.6
2019-01-24T03:48:35.290Z,-5.6
2019-01-24T03:49:37.383Z,-5.6
2019-01-24T03:50:39.489Z,-5.6
2019-01-24T03:51:41.882Z,-5.7
2019-01-24T03:52:43.973Z,-5.6
2019-01-24T03:53:46.373Z,-5.7
2019-01-24T03:54:48.457Z,-5.7
2019-01-24T03:55:50.561Z,-5.7
2019-01-24T03:56:53.064Z,-5.6
2019-01-24T03:57:55.539Z,-5.6
2019-01-24T03:58:58.099Z,-5.6
2019-01-24T04:00:00.372Z,-5.6
2019-01-24T04:01:02.502Z,-5.6
2019-01-24T04:02:04.867Z,-5.6
2019-01-24T04:03:07.357Z,-5.6
2019-01-24T04:04:09.455Z,-5.6
2019-01-24T04:05:13.241Z,-5.6
2019-01-24T04:06:15.746Z,-5.6
2019-01-24T04:07:17.847Z,-5.6
2019-01-24T04:08:20.223Z,-5.6
2019-01-24T04:09:22.335Z,-5.6
2019-01-24T04:10:24.455Z,-5.6
2019-01-24T04:11:26.833Z,-5.6
2019-01-24T04:12:28.938Z,-5.6
2019-01-24T04:13:31.333Z,-5.5
2019-01-24T04:14:33.429Z,-5.6
2019-01-24T04:15:35.556Z,-5.6
2019-01-24T04:16:37.944Z,-5.6
2019-01-24T04:17:40.031Z,-5.5
2019-01-24T04:18:42.429Z,-5.5
2019-01-24T04:19:44.548Z,-5.5
2019-01-24T04:20:46.644Z,-5.5
2019-01-24T04:21:49.151Z,-5.5
2019-01-24T04:22:51.263Z,-5.5
2019-01-24T04:23:53.379Z,-5.5
2019-01-24T04:24:55.490Z,-5.4
2019-01-24T04:25:57.590Z,-5.4
2019-01-24T04:26:59.988Z,-5.4
2019-01-24T04:28:02.109Z,-5.4
2019-01-24T04:29:04.217Z,-5.4
2019-01-24T04:30:06.624Z,-5.4
2019-01-24T04:31:09.099Z,-5.4
2019-01-24T04:32:11.486Z,-5.4
2019-01-24T04:33:13.973Z,-5.4
2019-01-24T04:34:16.091Z,-5.4
2019-01-24T04:35:21.692Z,-5.4
2019-01-24T04:36:24.202Z,-5.4
2019-01-24T04:37:26.612Z,-5.4
2019-01-24T04:38:28.703Z,-5.4
2019-01-24T04:39:30.817Z,-5.4
2019-01-24T04:40:32.913Z,-5.5
2019-01-24T04:41:35.042Z,-5.4
2019-01-24T04:42:37.146Z,-5.4
2019-01-24T04:43:39.271Z,-5.4
2019-01-24T04:44:41.642Z,-5.4
2019-01-24T04:45:43.745Z,-5.4
2019-01-24T04:46:45.873Z,-5.4
2019-01-24T04:47:47.972Z,-5.4
2019-01-24T04:48:50.419Z,-5.4
2019-01-24T04:49:52.519Z,-5.4
2019-01-24T04:50:54.616Z,-5.4
2019-01-24T04:51:56.718Z,-5.4
2019-01-24T04:52:59.895Z,-5.4
2019-01-24T04:54:02.290Z,-5.4
2019-01-24T04:55:04.410Z,-5.3
2019-01-24T04:56:06.918Z,-5.3
2019-01-24T04:57:09.439Z,-5.3
2019-01-24T04:58:11.824Z,-5.4
2019-01-24T04:59:13.979Z,-5.3
2019-01-24T05:00:16.397Z,-5.3
2019-01-24T05:01:18.511Z,-5.3
2019-01-24T05:02:21.010Z,-5.3
2019-01-24T05:03:23.151Z,-5.3
2019-01-24T05:04:25.265Z,-5.3
2019-01-24T05:05:29.208Z,-5.3
2019-01-24T05:06:31.343Z,-5.3
2019-01-24T05:07:33.457Z,-5.3
2019-01-24T05:08:35.549Z,-5.3
2019-01-24T05:09:37.682Z,-5.3
2019-01-24T05:10:39.790Z,-5.3
2019-01-24T05:11:41.886Z,-5.3
2019-01-24T05:12:44.287Z,-5.3
2019-01-24T05:13:46.660Z,-5.3
2019-01-24T05:14:48.767Z,-5.3
2019-01-24T05:15:50.890Z,-5.3
2019-01-24T05:16:53.006Z,-5.3
2019-01-24T05:17:55.106Z,-5.3
2019-01-24T05:18:57.208Z,-5.3
2019-01-24T05:19:59.310Z,-5.3
2019-01-24T05:21:01.391Z,-5.2
2019-01-24T05:22:03.518Z,-5.3
2019-01-24T05:23:05.683Z,-5.2
2019-01-24T05:24:07.779Z,-5.3
2019-01-24T05:25:09.877Z,-5.3
2019-01-24T05:26:11.998Z,-5.3
2019-01-24T05:27:14.106Z,-5.3
2019-01-24T05:28:17.167Z,-5.3
2019-01-24T05:29:19.278Z,-5.3
2019-01-24T05:30:21.752Z,-5.3
2019-01-24T05:31:23.868Z,-5.2
2019-01-24T05:32:26.572Z,-5.2
2019-01-24T05:33:28.655Z,-5.3
2019-01-24T05:34:30.768Z,-5.3
2019-01-24T05:35:36.135Z,-5.3
2019-01-24T05:36:38.522Z,-5.3
2019-01-24T05:37:40.612Z,-5.2
2019-01-24T05:38:42.734Z,-5.2
2019-01-24T05:39:45.149Z,-5.3
2019-01-24T05:40:47.269Z,-5.3
2019-01-24T05:41:49.770Z,-5.3
2019-01-24T05:42:51.878Z,-5.3
2019-01-24T05:43:55.070Z,-5.3
2019-01-24T05:44:57.165Z,-5.3
2019-01-24T05:45:59.718Z,-5.2
2019-01-24T05:47:01.805Z,-5.3
2019-01-24T05:48:03.940Z,-5.2
2019-01-24T05:49:06.037Z,-5.2
2019-01-24T05:50:08.154Z,-5.2
2019-01-24T05:51:10.248Z,-5.2
2019-01-24T05:52:19.987Z,-5.2
2019-01-24T05:53:22.188Z,-5.2
2019-01-24T05:54:24.304Z,-5.2
2019-01-24T05:55:26.430Z,-5.2
2019-01-24T05:56:28.535Z,-5.2
2019-01-24T05:57:30.639Z,-5.2
2019-01-24T05:58:32.742Z,-5.2
2019-01-24T05:59:34.862Z,-5.1
2019-01-24T06:00:36.951Z,-5.1
2019-01-24T06:01:39.068Z,-5.1
2019-01-24T06:02:41.171Z,-5.1
2019-01-24T06:03:43.264Z,-5.1
2019-01-24T06:04:46.045Z,-5.1
2019-01-24T06:05:48.160Z,-5.1
2019-01-24T06:06:50.243Z,-5.1
2019-01-24T06:07:52.358Z,-5.1
2019-01-24T06:08:54.852Z,-5
2019-01-24T06:09:56.940Z,-5
2019-01-24T06:10:59.061Z,-5
2019-01-24T06:12:01.444Z,-5
2019-01-24T06:13:03.548Z,-5
2019-01-24T06:14:05.935Z,-5
2019-01-24T06:15:08.055Z,-5
2019-01-24T06:16:10.142Z,-5
2019-01-24T06:17:12.244Z,-5
2019-01-24T06:18:14.644Z,-5
2019-01-24T06:19:16.732Z,-5
2019-01-24T06:20:18.857Z,-4.9
2019-01-24T06:21:21.952Z,-5
2019-01-24T06:22:24.657Z,-4.9
2019-01-24T06:23:27.137Z,-4.9
2019-01-24T06:24:29.245Z,-5
2019-01-24T06:25:31.733Z,-5
2019-01-24T06:26:33.827Z,-5
2019-01-24T06:27:35.951Z,-5
2019-01-24T06:28:38.044Z,-5
2019-01-24T06:29:40.146Z,-5
2019-01-24T06:30:42.259Z,-5
2019-01-24T06:31:44.358Z,-4.9
2019-01-24T06:32:47.116Z,-4.9
2019-01-24T06:33:50.171Z,-4.9
2019-01-24T06:34:52.275Z,-4.9
2019-01-24T06:35:54.387Z,-4.9
2019-01-24T06:36:56.500Z,-4.9
2019-01-24T06:37:58.600Z,-4.9
2019-01-24T06:39:00.694Z,-4.9
2019-01-24T06:40:02.813Z,-4.9
2019-01-24T06:41:05.207Z,-4.9
2019-01-24T06:42:07.309Z,-4.9
2019-01-24T06:43:09.412Z,-4.9
2019-01-24T06:44:11.496Z,-4.9
2019-01-24T06:45:13.911Z,-4.8
2019-01-24T06:46:16.014Z,-4.9
2019-01-24T06:47:18.125Z,-4.9
2019-01-24T06:48:20.202Z,-4.9
2019-01-24T06:49:22.309Z,-4.9
2019-01-24T06:50:24.405Z,-4.9
2019-01-24T06:51:26.491Z,-4.8
2019-01-24T06:52:28.867Z,-4.8
2019-01-24T06:53:31.362Z,-4.9
2019-01-24T06:54:33.461Z,-4.8
2019-01-24T06:55:35.561Z,-4.8
2019-01-24T06:56:37.938Z,-4.8
2019-01-24T06:57:40.048Z,-4.8
2019-01-24T06:58:42.143Z,-4.8
2019-01-24T06:59:44.227Z,-4.8
2019-01-24T07:00:46.346Z,-4.8
2019-01-24T07:01:48.822Z,-4.8
2019-01-24T07:02:50.924Z,-4.8
2019-01-24T07:03:53.034Z,-4.7
2019-01-24T07:04:55.136Z,-4.6
2019-01-24T07:05:57.223Z,-4.7
2019-01-24T07:06:59.328Z,-4.7
2019-01-24T07:08:01.415Z,-4.7
2019-01-24T07:09:03.509Z,-4.6
2019-01-24T07:10:05.614Z,-4.6
2019-01-24T07:11:07.705Z,-4.6
2019-01-24T07:12:09.795Z,-4.6
2019-01-24T07:13:11.920Z,-4.5
2019-01-24T07:14:14.290Z,-4.6
2019-01-24T07:15:16.390Z,-4.6
2019-01-24T07:16:18.517Z,-4.7
2019-01-24T07:17:20.615Z,-4.7
2019-01-24T07:18:22.715Z,-4.7
2019-01-24T07:19:24.816Z,-4.7
2019-01-24T07:20:27.204Z,-4.6
2019-01-24T07:21:29.278Z,-4.6
2019-01-24T07:22:31.386Z,-4.7
2019-01-24T07:23:33.484Z,-4.7
2019-01-24T07:24:35.572Z,-4.7
2019-01-24T07:25:38.091Z,-4.8
2019-01-24T07:26:40.183Z,-4.7
2019-01-24T07:27:42.281Z,-4.7
2019-01-24T07:28:44.378Z,-4.7
2019-01-24T07:29:46.490Z,-4.7
2019-01-24T07:30:48.584Z,-4.7
2019-01-24T07:31:50.685Z,-4.6
2019-01-24T07:32:53.209Z,-4.6
2019-01-24T07:33:55.320Z,-4.6
2019-01-24T07:34:57.406Z,-4.6
2019-01-24T07:36:03.400Z,-4.6
2019-01-24T07:37:05.521Z,-4.5
2019-01-24T07:38:07.639Z,-4.6
2019-01-24T07:39:09.724Z,-4.6
2019-01-24T07:40:11.829Z,-4.6
2019-01-24T07:41:13.922Z,-4.6
2019-01-24T07:42:16.018Z,-4.6
2019-01-24T07:43:18.135Z,-4.7
2019-01-24T07:44:20.232Z,-4.5
2019-01-24T07:45:22.330Z,-4.5
2019-01-24T07:46:24.461Z,-4.6
2019-01-24T07:47:26.552Z,-4.6
2019-01-24T07:48:28.650Z,-4.5
2019-01-24T07:49:30.763Z,-4.4
2019-01-24T07:50:32.857Z,-4.4
2019-01-24T07:51:34.964Z,-4.5
2019-01-24T07:52:37.117Z,-4.5
2019-01-24T07:53:39.227Z,-4.5
2019-01-24T07:54:41.316Z,-4.5
2019-01-24T07:55:43.426Z,-4.4
2019-01-24T07:56:45.526Z,-4.5
2019-01-24T07:57:48.005Z,-4.6
2019-01-24T07:58:50.129Z,-4.5
2019-01-24T07:59:52.220Z,-4.5
2019-01-24T08:00:54.323Z,-4.5
2019-01-24T08:01:56.700Z,-4.5
2019-01-24T08:02:58.825Z,-4.5
2019-01-24T08:04:01.307Z,-4.5
2019-01-24T08:05:03.412Z,-4.5
2019-01-24T08:06:10.320Z,-4.5
2019-01-24T08:07:12.408Z,-4.4
2019-01-24T08:08:14.514Z,-4.5
2019-01-24T08:09:16.615Z,-4.5
2019-01-24T08:10:18.722Z,-4.4
2019-01-24T08:11:21.100Z,-4.4
2019-01-24T08:12:23.481Z,-4.4
2019-01-24T08:13:25.593Z,-4.5
2019-01-24T08:14:27.967Z,-4.4
2019-01-24T08:15:30.468Z,-4.4
2019-01-24T08:16:32.581Z,-4.4
2019-01-24T08:17:34.681Z,-4.2
2019-01-24T08:18:36.773Z,-4.2
2019-01-24T08:19:38.893Z,-4.3
2019-01-24T08:20:40.993Z,-4.3
2019-01-24T08:21:43.092Z,-4.3
2019-01-24T08:22:45.212Z,-4.3
2019-01-24T08:23:47.292Z,-4.3
2019-01-24T08:24:49.398Z,-4.3
2019-01-24T08:25:51.502Z,-4.3
2019-01-24T08:26:54.015Z,-4.4
2019-01-24T08:27:56.098Z,-4.4
2019-01-24T08:28:58.215Z,-4.4
2019-01-24T08:30:00.447Z,-4.3
2019-01-24T08:31:02.545Z,-4.3
2019-01-24T08:32:04.658Z,-4.3
2019-01-24T08:33:06.781Z,-4.3
2019-01-24T08:34:08.881Z,-4.2
2019-01-24T08:35:10.975Z,-4.2
2019-01-24T08:36:16.848Z,-4.3
2019-01-24T08:37:18.931Z,-4.3
2019-01-24T08:38:21.047Z,-4.2
2019-01-24T08:39:23.158Z,-4.2
2019-01-24T08:40:25.626Z,-4.2
2019-01-24T08:41:27.728Z,-4.2
2019-01-24T08:42:29.845Z,-4.2
2019-01-24T08:43:31.939Z,-4.2
2019-01-24T08:44:34.353Z,-4.2
2019-01-24T08:45:36.476Z,-4.2
2019-01-24T08:46:38.574Z,-4.2
2019-01-24T08:47:40.997Z,-4.2
2019-01-24T08:48:43.095Z,-4.2
2019-01-24T08:49:45.188Z,-4.2
2019-01-24T08:50:47.284Z,-4.2
2019-01-24T08:51:49.405Z,-4.1
2019-01-24T08:52:51.493Z,-4.1
2019-01-24T08:53:53.601Z,-4
2019-01-24T08:54:55.709Z,-4.1
2019-01-24T08:55:57.800Z,-4.2
2019-01-24T08:57:00.194Z,-4.2
2019-01-24T08:58:02.577Z,-4.2
2019-01-24T08:59:04.679Z,-4.2
2019-01-24T09:00:06.770Z,-4.2
2019-01-24T09:01:09.212Z,-4.2
2019-01-24T09:02:11.867Z,-4.2
2019-01-24T09:03:13.963Z,-4.2
2019-01-24T09:04:16.078Z,-4.2
2019-01-24T09:05:18.161Z,-4.2
2019-01-24T09:06:24.184Z,-4.2
2019-01-24T09:07:26.283Z,-4.2
2019-01-24T09:08:28.384Z,-4.2
2019-01-24T09:09:30.471Z,-4.2
2019-01-24T09:10:32.583Z,-4.1
2019-01-24T09:11:34.958Z,-4.1
2019-01-24T09:12:37.052Z,-4.2
2019-01-24T09:13:39.162Z,-4.1
2019-01-24T09:14:41.249Z,-4.1
2019-01-24T09:15:43.375Z,-4.1
2019-01-24T09:16:45.492Z,-4
2019-01-24T09:17:47.652Z,-4
2019-01-24T09:18:49.753Z,-4
2019-01-24T09:19:51.856Z,-4
2019-01-24T09:20:53.959Z,-4
2019-01-24T09:21:56.056Z,-4
2019-01-24T09:22:58.165Z,-4
2019-01-24T09:24:00.844Z,-4
2019-01-24T09:25:02.954Z,-4
2019-01-24T09:26:05.041Z,-4
2019-01-24T09:27:07.149Z,-3.9
2019-01-24T09:28:16.365Z,-4
2019-01-24T09:29:18.450Z,-4
2019-01-24T09:30:20.875Z,-4
2019-01-24T09:31:23.290Z,-3.8
2019-01-24T09:32:25.388Z,-3.8
2019-01-24T09:33:27.479Z,-3.7
2019-01-24T09:34:29.591Z,-3.8
2019-01-24T09:35:31.685Z,-3.8
2019-01-24T09:36:33.795Z,-3.8
2019-01-24T09:37:35.913Z,-3.7
2019-01-24T09:38:37.998Z,-3.7
2019-01-24T09:39:40.113Z,-3.7
2019-01-24T09:40:42.209Z,-3.7
2019-01-24T09:41:44.313Z,-3.7
2019-01-24T09:42:46.391Z,-3.7
2019-01-24T09:43:48.781Z,-3.8
2019-01-24T09:44:51.182Z,-3.7
2019-01-24T09:45:53.276Z,-3.7
2019-01-24T09:46:55.396Z,-3.7
2019-01-24T09:47:57.492Z,-3.7
2019-01-24T09:48:59.605Z,-3.6
2019-01-24T09:50:01.727Z,-3.6
2019-01-24T09:51:04.213Z,-3.6
2019-01-24T09:52:06.303Z,-3.6
2019-01-24T09:53:08.406Z,-3.6
2019-01-24T09:54:10.494Z,-3.6
2019-01-24T09:55:12.604Z,-3.6
2019-01-24T09:56:14.720Z,-3.6
2019-01-24T09:57:16.820Z,-3.7
2019-01-24T09:58:18.914Z,-3.6
2019-01-24T09:59:21.041Z,-3.6
2019-01-24T10:00:23.431Z,-3.5
2019-01-24T10:01:25.527Z,-3.6
2019-01-24T10:02:27.631Z,-3.7
2019-01-24T10:03:30.030Z,-3.6
2019-01-24T10:04:32.135Z,-3.5
2019-01-24T10:05:34.266Z,-3.5
2019-01-24T10:06:37.530Z,-3.5
2019-01-24T10:07:39.647Z,-3.5
2019-01-24T10:08:41.744Z,-3.5
2019-01-24T10:09:43.849Z,-3.6
2019-01-24T10:10:45.964Z,-3.5
2019-01-24T10:11:48.071Z,-3.5
2019-01-24T10:12:50.864Z,-3.5
2019-01-24T10:13:53.243Z,-3.4
2019-01-24T10:14:55.351Z,-3.4
2019-01-24T10:15:57.433Z,-3.4
2019-01-24T10:16:59.550Z,-3.3
2019-01-24T10:18:02.314Z,-3.3
2019-01-24T10:19:04.414Z,-3.3
2019-01-24T10:20:06.539Z,-3.3
2019-01-24T10:21:08.915Z,-3.4
2019-01-24T10:22:11.028Z,-3.4
2019-01-24T10:23:13.142Z,-3.3
2019-01-24T10:24:15.244Z,-3.3
2019-01-24T10:25:17.335Z,-3.3
2019-01-24T10:26:19.444Z,-3.3
2019-01-24T10:27:21.547Z,-3.4
2019-01-24T10:28:23.647Z,-3.3
2019-01-24T10:29:25.755Z,-3.2
2019-01-24T10:30:27.852Z,-3.2
2019-01-24T10:31:30.803Z,-3.3
2019-01-24T10:32:32.925Z,-3.3
2019-01-24T10:33:35.026Z,-3.3
2019-01-24T10:34:37.161Z,-3.2
2019-01-24T10:35:39.294Z,-3.2
2019-01-24T10:36:44.256Z,-3.2
2019-01-24T10:37:46.363Z,-3.1
2019-01-24T10:38:48.463Z,-3.1
2019-01-24T10:39:50.594Z,-3.1
2019-01-24T10:40:52.712Z,-3.1
2019-01-24T10:41:54.811Z,-3.2
2019-01-24T10:42:56.920Z,-3.1
2019-01-24T10:43:59.040Z,-3.1
2019-01-24T10:45:01.203Z,-3.2
2019-01-24T10:46:03.610Z,-3.1
2019-01-24T10:47:05.706Z,-3.2
2019-01-24T10:48:07.812Z,-3.2
2019-01-24T10:49:09.901Z,-3.2
2019-01-24T10:50:12.018Z,-3.2
2019-01-24T10:51:14.108Z,-3.2
2019-01-24T10:52:16.211Z,-3.3
2019-01-24T10:53:18.340Z,-3.2
2019-01-24T10:54:20.433Z,-3.3
2019-01-24T10:55:22.591Z,-3.2
2019-01-24T10:56:24.703Z,-3.1
2019-01-24T10:57:27.191Z,-3.1
2019-01-24T10:58:29.280Z,-3.1
2019-01-24T10:59:31.392Z,-3
2019-01-24T11:00:33.886Z,-3
2019-01-24T11:01:35.996Z,-3
2019-01-24T11:02:38.114Z,-3
2019-01-24T11:03:40.607Z,-3
2019-01-24T11:04:42.697Z,-2.9
2019-01-24T11:05:44.817Z,-3
2019-01-24T11:06:51.557Z,-2.9
2019-01-24T11:07:53.731Z,-3
2019-01-24T11:08:55.845Z,-3.1
2019-01-24T11:09:57.989Z,-3.1
2019-01-24T11:11:00.096Z,-3
2019-01-24T11:12:02.201Z,-3.1
2019-01-24T11:13:04.339Z,-3.1
2019-01-24T11:14:06.438Z,-3.1
2019-01-24T11:15:08.550Z,-3.1
2019-01-24T11:16:10.656Z,-3.1
2019-01-24T11:17:12.794Z,-3
2019-01-24T11:18:15.200Z,-3
2019-01-24T11:19:17.295Z,-2.9
2019-01-24T11:20:19.405Z,-3
2019-01-24T11:21:21.501Z,-3
2019-01-24T11:22:23.622Z,-3
2019-01-24T11:23:25.719Z,-3
2019-01-24T11:24:27.829Z,-3.1
2019-01-24T11:25:29.941Z,-3
2019-01-24T11:26:32.031Z,-3
2019-01-24T11:27:34.139Z,-2.9
2019-01-24T11:28:36.242Z,-3
2019-01-24T11:29:38.335Z,-2.9
2019-01-24T11:30:40.432Z,-2.9
2019-01-24T11:31:42.541Z,-2.9
2019-01-24T11:32:44.644Z,-2.8
2019-01-24T11:33:46.769Z,-2.9
2019-01-24T11:34:48.871Z,-3
2019-01-24T11:35:50.979Z,-3
2019-01-24T11:36:58.354Z,-3
2019-01-24T11:38:00.753Z,-2.8
2019-01-24T11:39:03.113Z,-2.8
2019-01-24T11:40:05.222Z,-2.9
2019-01-24T11:41:07.330Z,-2.9
2019-01-24T11:42:09.421Z,-2.9
2019-01-24T11:43:11.550Z,-3
2019-01-24T11:44:13.645Z,-3
2019-01-24T11:45:15.754Z,-3
2019-01-24T11:46:17.845Z,-2.9
2019-01-24T11:47:19.955Z,-3
2019-01-24T11:48:22.077Z,-3
2019-01-24T11:49:24.186Z,-3
2019-01-24T11:50:26.302Z,-3
2019-01-24T11:51:28.686Z,-3.1
2019-01-24T11:52:30.792Z,-3
2019-01-24T11:53:32.893Z,-3
2019-01-24T11:54:35.004Z,-2.9
2019-01-24T11:55:37.435Z,-2.9
2019-01-24T11:56:39.541Z,-2.9
2019-01-24T11:57:41.664Z,-2.8
2019-01-24T11:58:43.777Z,-3
2019-01-24T11:59:45.871Z,-2.9
2019-01-24T12:00:47.985Z,-3
2019-01-24T12:01:50.387Z,-2.9
2019-01-24T12:02:52.481Z,-2.8
2019-01-24T12:03:54.590Z,-2.8
2019-01-24T12:04:56.982Z,-2.8
2019-01-24T12:05:59.086Z,-2.8
2019-01-24T12:07:05.256Z,-3
2019-01-24T12:08:07.358Z,-3
2019-01-24T12:09:09.448Z,-2.9
2019-01-24T12:10:11.558Z,-2.8
2019-01-24T12:11:13.674Z,-2.8
2019-01-24T12:12:16.044Z,-2.7
2019-01-24T12:13:18.160Z,-2.6
2019-01-24T12:14:20.274Z,-2.7
2019-01-24T12:15:22.373Z,-2.7
2019-01-24T12:16:24.491Z,-2.8
2019-01-24T12:17:26.584Z,-2.7
2019-01-24T12:18:28.689Z,-2.7
2019-01-24T12:19:30.778Z,-2.7
2019-01-24T12:20:32.897Z,-2.6
2019-01-24T12:21:35.276Z,-2.5
2019-01-24T12:22:37.388Z,-2.6
2019-01-24T12:23:39.514Z,-2.7
2019-01-24T12:24:41.884Z,-2.8
2019-01-24T12:25:44.111Z,-2.8
2019-01-24T12:26:46.250Z,-2.7
2019-01-24T12:27:48.670Z,-2.7
2019-01-24T12:28:50.763Z,-2.7
2019-01-24T12:29:52.884Z,-2.8
2019-01-24T12:30:54.989Z,-2.8
2019-01-24T12:31:57.086Z,-2.8
2019-01-24T12:32:59.262Z,-2.8
2019-01-24T12:34:01.943Z,-2.7
2019-01-24T12:35:04.053Z,-2.7
2019-01-24T12:36:06.179Z,-2.8
2019-01-24T12:37:12.747Z,-2.7
2019-01-24T12:38:14.897Z,-2.8
2019-01-24T12:39:17.001Z,-2.8
2019-01-24T12:40:19.175Z,-2.8
2019-01-24T12:41:21.669Z,-2.8
2019-01-24T12:42:23.759Z,-2.7
2019-01-24T12:43:25.869Z,-2.8
2019-01-24T12:44:27.981Z,-2.8
2019-01-24T12:45:30.076Z,-2.8
2019-01-24T12:46:32.240Z,-2.8
2019-01-24T12:47:34.354Z,-2.8
2019-01-24T12:48:36.463Z,-2.8
2019-01-24T12:49:38.598Z,-2.7
2019-01-24T12:50:40.711Z,-2.8
2019-01-24T12:51:42.820Z,-2.7
2019-01-24T12:52:45.072Z,-2.7
2019-01-24T12:53:47.197Z,-2.6
2019-01-24T12:54:49.293Z,-2.7
2019-01-24T12:55:51.399Z,-2.6
2019-01-24T12:56:53.521Z,-2.6
2019-01-24T12:57:55.897Z,-2.7
2019-01-24T12:58:58.015Z,-2.7
2019-01-24T13:00:01.469Z,-2.6
2019-01-24T13:01:03.925Z,-2.6
2019-01-24T13:02:06.015Z,-2.6
2019-01-24T13:03:08.522Z,-2.6
2019-01-24T13:04:10.625Z,-2.6
2019-01-24T13:05:13.115Z,-2.7
2019-01-24T13:06:15.240Z,-2.6
2019-01-24T13:07:19.650Z,-2.6
2019-01-24T13:08:21.769Z,-2.7
2019-01-24T13:09:24.170Z,-2.6
2019-01-24T13:10:26.280Z,-2.7
2019-01-24T13:11:28.760Z,-2.6
2019-01-24T13:12:30.865Z,-2.6
2019-01-24T13:13:32.986Z,-2.6
2019-01-24T13:14:35.093Z,-2.6
2019-01-24T13:15:37.202Z,-2.7
2019-01-24T13:16:39.595Z,-2.6
2019-01-24T13:17:41.711Z,-2.7
2019-01-24T13:18:43.801Z,-2.8
2019-01-24T13:19:45.908Z,-2.8
2019-01-24T13:20:48.018Z,-2.7
2019-01-24T13:21:50.113Z,-2.5
2019-01-24T13:22:52.539Z,-2.6
2019-01-24T13:23:54.640Z,-2.6
2019-01-24T13:24:56.749Z,-2.7
2019-01-24T13:25:58.845Z,-2.7
2019-01-24T13:27:00.968Z,-2.7
2019-01-24T13:28:03.082Z,-2.6
2019-01-24T13:29:05.197Z,-2.6
2019-01-24T13:30:07.307Z,-2.5
2019-01-24T13:31:09.396Z,-2.5
2019-01-24T13:32:11.521Z,-2.6
2019-01-24T13:33:13.628Z,-2.7
2019-01-24T13:34:17.124Z,-2.6
2019-01-24T13:35:19.210Z,-2.7
2019-01-24T13:36:21.324Z,-2.8
2019-01-24T13:37:27.110Z,-2.8
2019-01-24T13:38:29.211Z,-2.8
2019-01-24T13:39:31.341Z,-2.8
2019-01-24T13:40:33.444Z,-2.9
2019-01-24T13:41:42.248Z,-2.8
2019-01-24T13:42:44.725Z,-2.7
2019-01-24T13:43:46.834Z,-2.7
2019-01-24T13:44:48.970Z,-2.7
2019-01-24T13:45:51.081Z,-2.8
2019-01-24T13:46:53.564Z,-2.6
2019-01-24T13:47:56.240Z,-2.7
2019-01-24T13:48:58.354Z,-2.6
2019-01-24T13:50:00.460Z,-2.7
2019-01-24T13:51:02.559Z,-2.7
2019-01-24T13:52:04.681Z,-2.7
2019-01-24T13:53:06.786Z,-2.8